sensor_id;sensor_type;location;lat;lon;timestamp;temperature;humidity
1405;DHT22;697;51.114;6.542;2022-11-11T00:00:15;11.70;92.00
1405;DHT22;697;51.114;6.542;2022-11-11T00:02:42;11.70;91.70
1405;DHT22;697;51.114;6.542;2022-11-11T00:05:09;11.80;91.70
1405;DHT22;697;51.114;6.542;2022-11-11T00:07:36;11.70;91.60
1405;DHT22;697;51.114;6.542;2022-11-11T00:10:03;11.70;91.50
1405;DHT22;697;51.114;6.542;2022-11-11T00:12:30;11.60;91.50
1405;DHT22;697;51.114;6.542;2022-11-11T00:14:58;11.60;91.50
1405;DHT22;697;51.114;6.542;2022-11-11T00:17:25;11.60;91.60
1405;DHT22;697;51.114;6.542;2022-11-11T00:20:18;11.60;91.50
1405;DHT22;697;51.114;6.542;2022-11-11T00:23:19;11.70;91.50
1405;DHT22;697;51.114;6.542;2022-11-11T00:26:04;11.70;91.30
1405;DHT22;697;51.114;6.542;2022-11-11T00:28:31;11.70;91.20
1405;DHT22;697;51.114;6.542;2022-11-11T00:31:03;11.70;91.00
1405;DHT22;697;51.114;6.542;2022-11-11T00:33:30;11.70;90.90
1405;DHT22;697;51.114;6.542;2022-11-11T00:35:57;11.70;90.90
1405;DHT22;697;51.114;6.542;2022-11-11T00:38:23;11.70;90.90
1405;DHT22;697;51.114;6.542;2022-11-11T00:41:08;11.60;91.00
1405;DHT22;697;51.114;6.542;2022-11-11T00:43:35;11.60;91.30
1405;DHT22;697;51.114;6.542;2022-11-11T00:46:04;11.50;91.40
1405;DHT22;697;51.114;6.542;2022-11-11T00:48:49;11.40;91.50
1405;DHT22;697;51.114;6.542;2022-11-11T00:51:33;11.40;91.60
1405;DHT22;697;51.114;6.542;2022-11-11T00:54:00;11.40;91.70
1405;DHT22;697;51.114;6.542;2022-11-11T00:56:27;11.40;91.70
1405;DHT22;697;51.114;6.542;2022-11-11T00:58:54;11.40;91.70
1405;DHT22;697;51.114;6.542;2022-11-11T01:01:22;11.40;91.80
1405;DHT22;697;51.114;6.542;2022-11-11T01:03:49;11.40;91.90
1405;DHT22;697;51.114;6.542;2022-11-11T01:06:15;11.30;91.90
1405;DHT22;697;51.114;6.542;2022-11-11T01:08:42;11.30;91.90
1405;DHT22;697;51.114;6.542;2022-11-11T01:11:13;11.30;92.00
1405;DHT22;697;51.114;6.542;2022-11-11T01:13:40;11.30;91.90
1405;DHT22;697;51.114;6.542;2022-11-11T01:16:11;11.30;91.90
1405;DHT22;697;51.114;6.542;2022-11-11T01:18:40;11.30;91.90
1405;DHT22;697;51.114;6.542;2022-11-11T01:21:09;11.30;91.90
1405;DHT22;697;51.114;6.542;2022-11-11T01:23:38;11.30;91.90
1405;DHT22;697;51.114;6.542;2022-11-11T01:26:08;11.30;92.00
1405;DHT22;697;51.114;6.542;2022-11-11T01:28:35;11.20;92.00
1405;DHT22;697;51.114;6.542;2022-11-11T01:31:03;11.20;92.00
1405;DHT22;697;51.114;6.542;2022-11-11T01:33:30;11.20;91.90
1405;DHT22;697;51.114;6.542;2022-11-11T01:36:04;11.20;91.60
1405;DHT22;697;51.114;6.542;2022-11-11T01:38:31;11.20;91.40
1405;DHT22;697;51.114;6.542;2022-11-11T01:40:58;11.20;91.10
1405;DHT22;697;51.114;6.542;2022-11-11T01:43:25;11.10;91.10
1405;DHT22;697;51.114;6.542;2022-11-11T01:45:54;11.10;91.40
1405;DHT22;697;51.114;6.542;2022-11-11T01:48:28;11.10;91.30
1405;DHT22;697;51.114;6.542;2022-11-11T01:51:19;11.10;91.30
1405;DHT22;697;51.114;6.542;2022-11-11T01:53:50;11.10;91.40
1405;DHT22;697;51.114;6.542;2022-11-11T01:56:17;11.10;91.50
1405;DHT22;697;51.114;6.542;2022-11-11T01:58:44;11.10;91.50
1405;DHT22;697;51.114;6.542;2022-11-11T02:01:11;11.10;91.50
1405;DHT22;697;51.114;6.542;2022-11-11T02:03:39;11.10;91.30
1405;DHT22;697;51.114;6.542;2022-11-11T02:06:06;11.00;91.00
1405;DHT22;697;51.114;6.542;2022-11-11T02:08:35;11.00;90.80
1405;DHT22;697;51.114;6.542;2022-11-11T02:11:06;11.00;90.70
1405;DHT22;697;51.114;6.542;2022-11-11T02:13:37;11.00;90.50
1405;DHT22;697;51.114;6.542;2022-11-11T02:16:22;11.00;90.60
1405;DHT22;697;51.114;6.542;2022-11-11T02:18:49;11.00;90.90
1405;DHT22;697;51.114;6.542;2022-11-11T02:21:34;11.00;91.10
1405;DHT22;697;51.114;6.542;2022-11-11T02:24:07;10.90;91.10
1405;DHT22;697;51.114;6.542;2022-11-11T02:26:36;10.80;91.10
1405;DHT22;697;51.114;6.542;2022-11-11T02:29:07;10.90;91.30
1405;DHT22;697;51.114;6.542;2022-11-11T02:31:36;10.80;91.30
1405;DHT22;697;51.114;6.542;2022-11-11T02:34:02;10.80;91.20
1405;DHT22;697;51.114;6.542;2022-11-11T02:36:29;10.80;91.50
1405;DHT22;697;51.114;6.542;2022-11-11T02:38:56;10.80;91.60
1405;DHT22;697;51.114;6.542;2022-11-11T02:41:24;10.70;91.80
1405;DHT22;697;51.114;6.542;2022-11-11T02:44:08;10.80;92.00
1405;DHT22;697;51.114;6.542;2022-11-11T02:46:35;10.70;92.00
1405;DHT22;697;51.114;6.542;2022-11-11T02:49:02;10.70;91.80
1405;DHT22;697;51.114;6.542;2022-11-11T02:51:28;10.70;92.00
1405;DHT22;697;51.114;6.542;2022-11-11T02:53:55;10.70;92.20
1405;DHT22;697;51.114;6.542;2022-11-11T02:56:28;10.70;92.30
1405;DHT22;697;51.114;6.542;2022-11-11T02:59:13;10.70;92.30
1405;DHT22;697;51.114;6.542;2022-11-11T03:01:40;10.70;92.20
1405;DHT22;697;51.114;6.542;2022-11-11T03:04:06;10.70;92.00
1405;DHT22;697;51.114;6.542;2022-11-11T03:06:33;10.70;91.70
1405;DHT22;697;51.114;6.542;2022-11-11T03:09:00;10.60;91.40
1405;DHT22;697;51.114;6.542;2022-11-11T03:11:28;10.60;91.20
1405;DHT22;697;51.114;6.542;2022-11-11T03:13:55;10.60;91.00
1405;DHT22;697;51.114;6.542;2022-11-11T03:16:23;10.60;90.90
1405;DHT22;697;51.114;6.542;2022-11-11T03:19:06;10.60;90.80
1405;DHT22;697;51.114;6.542;2022-11-11T03:21:33;10.60;90.70
1405;DHT22;697;51.114;6.542;2022-11-11T03:24:00;10.60;91.00
1405;DHT22;697;51.114;6.542;2022-11-11T03:26:28;10.60;90.60
1405;DHT22;697;51.114;6.542;2022-11-11T03:28:54;10.50;90.50
1405;DHT22;697;51.114;6.542;2022-11-11T03:31:20;10.50;90.40
1405;DHT22;697;51.114;6.542;2022-11-11T03:33:47;10.40;90.20
1405;DHT22;697;51.114;6.542;2022-11-11T03:36:14;10.40;90.00
1405;DHT22;697;51.114;6.542;2022-11-11T03:38:41;10.40;90.00
1405;DHT22;697;51.114;6.542;2022-11-11T03:41:06;10.30;89.90
1405;DHT22;697;51.114;6.542;2022-11-11T03:43:34;10.30;90.00
1405;DHT22;697;51.114;6.542;2022-11-11T03:46:03;10.30;90.20
1405;DHT22;697;51.114;6.542;2022-11-11T03:48:33;10.30;90.20
1405;DHT22;697;51.114;6.542;2022-11-11T03:51:00;10.30;90.20
1405;DHT22;697;51.114;6.542;2022-11-11T03:53:26;10.30;90.20
1405;DHT22;697;51.114;6.542;2022-11-11T03:55:53;10.30;90.20
1405;DHT22;697;51.114;6.542;2022-11-11T03:58:20;10.30;90.20
1405;DHT22;697;51.114;6.542;2022-11-11T04:00:48;10.30;90.40
1405;DHT22;697;51.114;6.542;2022-11-11T04:03:16;10.20;91.10
1405;DHT22;697;51.114;6.542;2022-11-11T04:06:01;10.20;91.70
1405;DHT22;697;51.114;6.542;2022-11-11T04:08:50;10.20;92.00
1405;DHT22;697;51.114;6.542;2022-11-11T04:11:37;10.10;92.20
1405;DHT22;697;51.114;6.542;2022-11-11T04:14:06;10.10;92.40
1405;DHT22;697;51.114;6.542;2022-11-11T04:16:52;10.10;92.60
1405;DHT22;697;51.114;6.542;2022-11-11T04:19:19;10.10;92.70
1405;DHT22;697;51.114;6.542;2022-11-11T04:22:00;10.10;92.90
1405;DHT22;697;51.114;6.542;2022-11-11T04:24:26;10.10;92.90
1405;DHT22;697;51.114;6.542;2022-11-11T04:27:12;10.10;92.80
1405;DHT22;697;51.114;6.542;2022-11-11T04:29:40;10.10;92.90
1405;DHT22;697;51.114;6.542;2022-11-11T04:32:10;10.10;93.00
1405;DHT22;697;51.114;6.542;2022-11-11T04:34:55;10.10;92.90
1405;DHT22;697;51.114;6.542;2022-11-11T04:37:24;10.10;92.90
1405;DHT22;697;51.114;6.542;2022-11-11T04:39:51;10.10;93.10
1405;DHT22;697;51.114;6.542;2022-11-11T04:42:36;10.10;93.10
1405;DHT22;697;51.114;6.542;2022-11-11T04:45:04;10.10;93.10
1405;DHT22;697;51.114;6.542;2022-11-11T04:47:55;10.10;93.10
1405;DHT22;697;51.114;6.542;2022-11-11T04:50:23;10.10;92.90
1405;DHT22;697;51.114;6.542;2022-11-11T04:52:50;10.10;93.10
1405;DHT22;697;51.114;6.542;2022-11-11T04:55:17;10.10;93.00
1405;DHT22;697;51.114;6.542;2022-11-11T04:58:02;10.10;93.00
1405;DHT22;697;51.114;6.542;2022-11-11T05:00:29;10.20;92.90
1405;DHT22;697;51.114;6.542;2022-11-11T05:02:57;10.20;92.70
1405;DHT22;697;51.114;6.542;2022-11-11T05:05:43;10.20;92.50
1405;DHT22;697;51.114;6.542;2022-11-11T05:08:27;10.20;92.30
1405;DHT22;697;51.114;6.542;2022-11-11T05:11:11;10.30;92.20
1405;DHT22;697;51.114;6.542;2022-11-11T05:13:38;10.30;92.40
1405;DHT22;697;51.114;6.542;2022-11-11T05:16:25;10.30;92.00
1405;DHT22;697;51.114;6.542;2022-11-11T05:19:12;10.30;91.90
1405;DHT22;697;51.114;6.542;2022-11-11T05:22:03;10.30;91.80
1405;DHT22;697;51.114;6.542;2022-11-11T05:24:31;10.30;91.80
1405;DHT22;697;51.114;6.542;2022-11-11T05:27:14;10.30;91.90
1405;DHT22;697;51.114;6.542;2022-11-11T05:29:40;10.30;92.00
1405;DHT22;697;51.114;6.542;2022-11-11T05:32:07;10.20;92.20
1405;DHT22;697;51.114;6.542;2022-11-11T05:34:35;10.20;92.30
1405;DHT22;697;51.114;6.542;2022-11-11T05:37:02;10.10;92.40
1405;DHT22;697;51.114;6.542;2022-11-11T05:39:29;10.10;92.70
1405;DHT22;697;51.114;6.542;2022-11-11T05:41:55;10.00;92.80
1405;DHT22;697;51.114;6.542;2022-11-11T05:44:22;10.00;92.90
1405;DHT22;697;51.114;6.542;2022-11-11T05:46:49;9.90;93.70
1405;DHT22;697;51.114;6.542;2022-11-11T05:49:15;9.90;93.90
1405;DHT22;697;51.114;6.542;2022-11-11T05:51:44;9.80;94.00
1405;DHT22;697;51.114;6.542;2022-11-11T05:54:12;9.80;94.10
1405;DHT22;697;51.114;6.542;2022-11-11T05:56:39;9.80;94.10
1405;DHT22;697;51.114;6.542;2022-11-11T05:59:06;9.80;94.30
1405;DHT22;697;51.114;6.542;2022-11-11T06:01:34;9.80;94.30
1405;DHT22;697;51.114;6.542;2022-11-11T06:04:01;9.80;94.30
1405;DHT22;697;51.114;6.542;2022-11-11T06:06:28;9.80;94.30
1405;DHT22;697;51.114;6.542;2022-11-11T06:08:56;9.90;94.30
1405;DHT22;697;51.114;6.542;2022-11-11T06:11:23;9.90;94.20
1405;DHT22;697;51.114;6.542;2022-11-11T06:13:50;10.00;93.50
1405;DHT22;697;51.114;6.542;2022-11-11T06:16:17;10.00;93.20
1405;DHT22;697;51.114;6.542;2022-11-11T06:18:44;10.00;93.00
1405;DHT22;697;51.114;6.542;2022-11-11T06:21:10;10.10;92.90
1405;DHT22;697;51.114;6.542;2022-11-11T06:23:37;10.10;92.70
1405;DHT22;697;51.114;6.542;2022-11-11T06:26:05;10.10;92.60
1405;DHT22;697;51.114;6.542;2022-11-11T06:28:40;10.10;92.40
1405;DHT22;697;51.114;6.542;2022-11-11T06:31:07;10.10;92.30
1405;DHT22;697;51.114;6.542;2022-11-11T06:33:34;10.10;92.20
1405;DHT22;697;51.114;6.542;2022-11-11T06:36:01;10.10;92.20
1405;DHT22;697;51.114;6.542;2022-11-11T06:38:28;10.00;92.40
1405;DHT22;697;51.114;6.542;2022-11-11T06:40:55;9.90;93.30
1405;DHT22;697;51.114;6.542;2022-11-11T06:43:24;9.90;93.50
1405;DHT22;697;51.114;6.542;2022-11-11T06:45:52;9.90;93.60
1405;DHT22;697;51.114;6.542;2022-11-11T06:48:19;9.90;93.60
1405;DHT22;697;51.114;6.542;2022-11-11T06:50:46;9.90;93.50
1405;DHT22;697;51.114;6.542;2022-11-11T06:53:14;10.00;92.90
1405;DHT22;697;51.114;6.542;2022-11-11T06:55:42;9.90;93.40
1405;DHT22;697;51.114;6.542;2022-11-11T06:58:10;9.90;93.60
1405;DHT22;697;51.114;6.542;2022-11-11T07:00:39;9.90;93.60
1405;DHT22;697;51.114;6.542;2022-11-11T07:03:07;9.90;93.50
1405;DHT22;697;51.114;6.542;2022-11-11T07:05:35;9.90;93.50
1405;DHT22;697;51.114;6.542;2022-11-11T07:08:03;9.90;93.50
1405;DHT22;697;51.114;6.542;2022-11-11T07:10:30;9.90;93.50
1405;DHT22;697;51.114;6.542;2022-11-11T07:12:57;9.90;93.50
1405;DHT22;697;51.114;6.542;2022-11-11T07:15:24;9.90;93.60
1405;DHT22;697;51.114;6.542;2022-11-11T07:17:52;9.90;93.70
1405;DHT22;697;51.114;6.542;2022-11-11T07:20:19;9.90;93.70
1405;DHT22;697;51.114;6.542;2022-11-11T07:22:46;10.00;93.20
1405;DHT22;697;51.114;6.542;2022-11-11T07:25:13;10.00;93.20
1405;DHT22;697;51.114;6.542;2022-11-11T07:27:41;10.10;93.00
1405;DHT22;697;51.114;6.542;2022-11-11T07:30:09;10.10;92.90
1405;DHT22;697;51.114;6.542;2022-11-11T07:32:36;10.10;92.90
1405;DHT22;697;51.114;6.542;2022-11-11T07:35:08;10.20;93.00
1405;DHT22;697;51.114;6.542;2022-11-11T07:37:35;10.20;92.70
1405;DHT22;697;51.114;6.542;2022-11-11T07:40:03;10.30;92.80
1405;DHT22;697;51.114;6.542;2022-11-11T07:42:30;10.40;92.80
1405;DHT22;697;51.114;6.542;2022-11-11T07:44:57;10.50;92.60
1405;DHT22;697;51.114;6.542;2022-11-11T07:47:32;10.60;92.60
1405;DHT22;697;51.114;6.542;2022-11-11T07:53:22;10.70;92.30
1405;DHT22;697;51.114;6.542;2022-11-11T07:55:50;10.80;92.10
1405;DHT22;697;51.114;6.542;2022-11-11T07:58:17;10.90;92.00
1405;DHT22;697;51.114;6.542;2022-11-11T08:00:43;10.90;91.90
1405;DHT22;697;51.114;6.542;2022-11-11T08:03:10;11.00;91.80
1405;DHT22;697;51.114;6.542;2022-11-11T08:05:37;11.00;91.60
1405;DHT22;697;51.114;6.542;2022-11-11T08:08:05;11.00;91.40
1405;DHT22;697;51.114;6.542;2022-11-11T08:10:33;11.00;91.20
1405;DHT22;697;51.114;6.542;2022-11-11T08:13:00;11.10;91.20
1405;DHT22;697;51.114;6.542;2022-11-11T08:15:44;11.10;91.30
1405;DHT22;697;51.114;6.542;2022-11-11T08:18:11;11.10;91.30
1405;DHT22;697;51.114;6.542;2022-11-11T08:20:38;11.20;91.40
1405;DHT22;697;51.114;6.542;2022-11-11T08:23:05;11.30;91.40
1405;DHT22;697;51.114;6.542;2022-11-11T08:25:36;11.30;91.40
1405;DHT22;697;51.114;6.542;2022-11-11T08:28:04;11.40;91.30
1405;DHT22;697;51.114;6.542;2022-11-11T08:30:31;11.50;91.30
1405;DHT22;697;51.114;6.542;2022-11-11T08:32:58;11.50;91.10
1405;DHT22;697;51.114;6.542;2022-11-11T08:35:25;11.60;91.00
1405;DHT22;697;51.114;6.542;2022-11-11T08:37:52;11.70;90.70
1405;DHT22;697;51.114;6.542;2022-11-11T08:40:19;11.70;90.40
1405;DHT22;697;51.114;6.542;2022-11-11T08:42:47;11.70;90.20
1405;DHT22;697;51.114;6.542;2022-11-11T08:45:14;11.70;90.10
1405;DHT22;697;51.114;6.542;2022-11-11T08:47:43;11.70;90.20
1405;DHT22;697;51.114;6.542;2022-11-11T08:50:10;11.60;90.10
1405;DHT22;697;51.114;6.542;2022-11-11T08:52:36;11.60;90.30
1405;DHT22;697;51.114;6.542;2022-11-11T08:55:04;11.60;90.30
1405;DHT22;697;51.114;6.542;2022-11-11T08:57:31;11.70;90.30
1405;DHT22;697;51.114;6.542;2022-11-11T08:59:59;11.70;90.40
1405;DHT22;697;51.114;6.542;2022-11-11T09:02:25;11.70;90.40
1405;DHT22;697;51.114;6.542;2022-11-11T09:04:52;11.80;90.40
1405;DHT22;697;51.114;6.542;2022-11-11T09:07:19;11.90;90.20
1405;DHT22;697;51.114;6.542;2022-11-11T09:09:45;11.90;90.20
1405;DHT22;697;51.114;6.542;2022-11-11T09:12:12;12.00;90.20
1405;DHT22;697;51.114;6.542;2022-11-11T09:14:39;12.00;90.10
1405;DHT22;697;51.114;6.542;2022-11-11T09:17:07;12.10;89.80
1405;DHT22;697;51.114;6.542;2022-11-11T09:19:34;12.20;89.30
1405;DHT22;697;51.114;6.542;2022-11-11T09:22:00;12.30;89.00
1405;DHT22;697;51.114;6.542;2022-11-11T09:24:27;12.40;88.80
1405;DHT22;697;51.114;6.542;2022-11-11T09:26:54;12.40;88.40
1405;DHT22;697;51.114;6.542;2022-11-11T09:29:21;12.50;87.90
1405;DHT22;697;51.114;6.542;2022-11-11T09:31:47;12.60;87.90
1405;DHT22;697;51.114;6.542;2022-11-11T09:34:16;12.70;87.80
1405;DHT22;697;51.114;6.542;2022-11-11T09:36:42;12.70;87.50
1405;DHT22;697;51.114;6.542;2022-11-11T09:39:09;12.80;87.40
1405;DHT22;697;51.114;6.542;2022-11-11T09:41:44;12.90;87.10
1405;DHT22;697;51.114;6.542;2022-11-11T09:44:24;13.00;86.70
1405;DHT22;697;51.114;6.542;2022-11-11T09:46:57;13.10;86.80
1405;DHT22;697;51.114;6.542;2022-11-11T09:49:51;13.20;85.30
1405;DHT22;697;51.114;6.542;2022-11-11T09:52:22;13.30;84.80
1405;DHT22;697;51.114;6.542;2022-11-11T09:54:54;13.40;84.50
1405;DHT22;697;51.114;6.542;2022-11-11T09:57:36;13.40;84.40
1405;DHT22;697;51.114;6.542;2022-11-11T10:00:13;13.60;83.70
1405;DHT22;697;51.114;6.542;2022-11-11T10:02:44;13.70;83.50
1405;DHT22;697;51.114;6.542;2022-11-11T10:05:16;13.80;82.20
1405;DHT22;697;51.114;6.542;2022-11-11T10:07:46;13.90;81.70
1405;DHT22;697;51.114;6.542;2022-11-11T10:10:20;14.00;81.50
1405;DHT22;697;51.114;6.542;2022-11-11T10:12:53;14.00;80.70
1405;DHT22;697;51.114;6.542;2022-11-11T10:15:21;14.20;80.20
1405;DHT22;697;51.114;6.542;2022-11-11T10:17:57;14.30;79.70
1405;DHT22;697;51.114;6.542;2022-11-11T10:20:31;14.40;78.70
1405;DHT22;697;51.114;6.542;2022-11-11T10:23:02;14.50;77.70
1405;DHT22;697;51.114;6.542;2022-11-11T10:25:29;14.60;77.10
1405;DHT22;697;51.114;6.542;2022-11-11T10:27:59;14.70;76.60
1405;DHT22;697;51.114;6.542;2022-11-11T10:30:29;14.70;76.60
1405;DHT22;697;51.114;6.542;2022-11-11T10:32:58;14.90;76.00
1405;DHT22;697;51.114;6.542;2022-11-11T10:35:27;15.00;75.30
1405;DHT22;697;51.114;6.542;2022-11-11T10:38:02;15.20;75.00
1405;DHT22;697;51.114;6.542;2022-11-11T10:40:36;15.40;74.50
1405;DHT22;697;51.114;6.542;2022-11-11T10:43:08;15.60;72.90
1405;DHT22;697;51.114;6.542;2022-11-11T10:45:43;15.70;71.70
1405;DHT22;697;51.114;6.542;2022-11-11T10:48:15;15.70;71.30
1405;DHT22;697;51.114;6.542;2022-11-11T10:50:44;15.90;71.00
1405;DHT22;697;51.114;6.542;2022-11-11T10:53:18;16.00;69.20
1405;DHT22;697;51.114;6.542;2022-11-11T10:55:51;16.10;68.70
1405;DHT22;697;51.114;6.542;2022-11-11T10:58:26;16.20;68.10
1405;DHT22;697;51.114;6.542;2022-11-11T11:00:53;16.30;67.60
1405;DHT22;697;51.114;6.542;2022-11-11T11:03:23;16.50;67.30
1405;DHT22;697;51.114;6.542;2022-11-11T11:05:55;16.70;66.60
1405;DHT22;697;51.114;6.542;2022-11-11T11:08:28;16.90;66.10
1405;DHT22;697;51.114;6.542;2022-11-11T11:10:57;16.90;64.60
1405;DHT22;697;51.114;6.542;2022-11-11T11:13:30;17.00;64.10
1405;DHT22;697;51.114;6.542;2022-11-11T11:16:03;17.00;63.80
1405;DHT22;697;51.114;6.542;2022-11-11T11:18:32;17.00;63.40
1405;DHT22;697;51.114;6.542;2022-11-11T11:21:00;17.00;63.40
1405;DHT22;697;51.114;6.542;2022-11-11T11:23:37;17.00;63.80
1405;DHT22;697;51.114;6.542;2022-11-11T11:26:05;17.10;64.10
1405;DHT22;697;51.114;6.542;2022-11-11T11:28:32;17.30;63.20
1405;DHT22;697;51.114;6.542;2022-11-11T11:31:01;17.40;62.30
1405;DHT22;697;51.114;6.542;2022-11-11T11:33:49;17.60;62.00
1405;DHT22;697;51.114;6.542;2022-11-11T11:36:17;17.70;61.50
1405;DHT22;697;51.114;6.542;2022-11-11T11:38:47;17.90;60.50
1405;DHT22;697;51.114;6.542;2022-11-11T11:41:15;18.10;59.70
1405;DHT22;697;51.114;6.542;2022-11-11T11:43:42;18.30;59.10
1405;DHT22;697;51.114;6.542;2022-11-11T11:46:17;18.40;58.70
1405;DHT22;697;51.114;6.542;2022-11-11T11:49:05;18.50;57.50
1405;DHT22;697;51.114;6.542;2022-11-11T11:51:41;18.40;57.30
1405;DHT22;697;51.114;6.542;2022-11-11T11:54:36;18.30;57.20
1405;DHT22;697;51.114;6.542;2022-11-11T11:57:17;18.40;57.50
1405;DHT22;697;51.114;6.542;2022-11-11T11:59:52;18.50;57.40
1405;DHT22;697;51.114;6.542;2022-11-11T12:02:39;18.60;57.10
1405;DHT22;697;51.114;6.542;2022-11-11T12:05:14;18.80;57.00
1405;DHT22;697;51.114;6.542;2022-11-11T12:08:05;18.90;57.50
1405;DHT22;697;51.114;6.542;2022-11-11T12:10:42;19.20;57.00
1405;DHT22;697;51.114;6.542;2022-11-11T12:13:20;19.30;55.10
1405;DHT22;697;51.114;6.542;2022-11-11T12:15:55;19.40;54.80
1405;DHT22;697;51.114;6.542;2022-11-11T12:18:59;19.60;54.20
1405;DHT22;697;51.114;6.542;2022-11-11T12:21:35;19.90;54.30
1405;DHT22;697;51.114;6.542;2022-11-11T12:24:07;20.10;54.10
1405;DHT22;697;51.114;6.542;2022-11-11T12:26:46;20.40;52.50
1405;DHT22;697;51.114;6.542;2022-11-11T12:29:29;20.70;51.40
1405;DHT22;697;51.114;6.542;2022-11-11T12:32:09;21.00;50.10
1405;DHT22;697;51.114;6.542;2022-11-11T12:37:39;21.40;49.60
1405;DHT22;697;51.114;6.542;2022-11-11T12:40:20;21.50;49.20
1405;DHT22;697;51.114;6.542;2022-11-11T12:43:00;21.60;49.90
1405;DHT22;697;51.114;6.542;2022-11-11T12:45:35;21.60;49.90
1405;DHT22;697;51.114;6.542;2022-11-11T12:48:12;21.50;49.00
1405;DHT22;697;51.114;6.542;2022-11-11T12:50:49;21.40;49.00
1405;DHT22;697;51.114;6.542;2022-11-11T12:53:28;21.40;49.30
1405;DHT22;697;51.114;6.542;2022-11-11T12:56:04;21.50;49.30
1405;DHT22;697;51.114;6.542;2022-11-11T12:58:42;21.70;49.20
1405;DHT22;697;51.114;6.542;2022-11-11T13:01:19;21.90;48.60
1405;DHT22;697;51.114;6.542;2022-11-11T13:04:13;22.10;48.30
1405;DHT22;697;51.114;6.542;2022-11-11T13:07:00;22.20;48.50
1405;DHT22;697;51.114;6.542;2022-11-11T13:09:48;22.40;48.90
1405;DHT22;697;51.114;6.542;2022-11-11T13:12:19;22.40;48.50
1405;DHT22;697;51.114;6.542;2022-11-11T13:14:59;22.30;48.50
1405;DHT22;697;51.114;6.542;2022-11-11T13:17:27;22.30;49.00
1405;DHT22;697;51.114;6.542;2022-11-11T13:19:55;22.50;49.10
1405;DHT22;697;51.114;6.542;2022-11-11T13:22:25;22.70;48.30
1405;DHT22;697;51.114;6.542;2022-11-11T13:24:54;22.80;48.30
1405;DHT22;697;51.114;6.542;2022-11-11T13:27:33;22.90;48.50
1405;DHT22;697;51.114;6.542;2022-11-11T13:30:34;22.80;47.20
1405;DHT22;697;51.114;6.542;2022-11-11T13:33:06;22.60;47.60
1405;DHT22;697;51.114;6.542;2022-11-11T13:35:37;22.50;48.30
1405;DHT22;697;51.114;6.542;2022-11-11T13:38:05;22.50;48.30
1405;DHT22;697;51.114;6.542;2022-11-11T13:40:36;22.60;48.50
1405;DHT22;697;51.114;6.542;2022-11-11T13:43:05;22.70;48.60
1405;DHT22;697;51.114;6.542;2022-11-11T13:45:42;22.60;48.70
1405;DHT22;697;51.114;6.542;2022-11-11T13:48:20;22.30;48.90
1405;DHT22;697;51.114;6.542;2022-11-11T13:50:49;22.10;49.70
1405;DHT22;697;51.114;6.542;2022-11-11T13:53:25;21.80;50.50
1405;DHT22;697;51.114;6.542;2022-11-11T13:56:00;21.50;50.80
1405;DHT22;697;51.114;6.542;2022-11-11T13:58:30;21.20;51.40
1405;DHT22;697;51.114;6.542;2022-11-11T14:01:00;20.90;51.90
1405;DHT22;697;51.114;6.542;2022-11-11T14:03:30;20.60;52.60
1405;DHT22;697;51.114;6.542;2022-11-11T14:06:34;20.40;53.50
1405;DHT22;697;51.114;6.542;2022-11-11T14:09:03;20.10;54.20
1405;DHT22;697;51.114;6.542;2022-11-11T14:11:32;19.90;54.80
1405;DHT22;697;51.114;6.542;2022-11-11T14:17:03;19.40;56.10
1405;DHT22;697;51.114;6.542;2022-11-11T14:19:30;19.30;56.50
1405;DHT22;697;51.114;6.542;2022-11-11T14:21:59;19.10;57.00
1405;DHT22;697;51.114;6.542;2022-11-11T14:24:34;19.00;57.60
1405;DHT22;697;51.114;6.542;2022-11-11T14:27:02;18.80;57.90
1405;DHT22;697;51.114;6.542;2022-11-11T14:29:32;18.70;58.30
1405;DHT22;697;51.114;6.542;2022-11-11T14:32:32;18.60;58.70
1405;DHT22;697;51.114;6.542;2022-11-11T14:35:12;18.50;59.20
1405;DHT22;697;51.114;6.542;2022-11-11T14:37:58;18.30;59.60
1405;DHT22;697;51.114;6.542;2022-11-11T14:40:27;18.30;60.10
1405;DHT22;697;51.114;6.542;2022-11-11T14:42:55;18.10;60.40
1405;DHT22;697;51.114;6.542;2022-11-11T14:48:55;17.90;61.60
1405;DHT22;697;51.114;6.542;2022-11-11T14:51:51;17.80;62.10
1405;DHT22;697;51.114;6.542;2022-11-11T14:54:34;17.70;62.90
1405;DHT22;697;51.114;6.542;2022-11-11T14:57:06;17.60;63.30
1405;DHT22;697;51.114;6.542;2022-11-11T14:59:34;17.50;63.90
1405;DHT22;697;51.114;6.542;2022-11-11T15:02:02;17.40;64.40
1405;DHT22;697;51.114;6.542;2022-11-11T15:04:37;17.30;64.80
1405;DHT22;697;51.114;6.542;2022-11-11T15:07:17;17.20;65.10
1405;DHT22;697;51.114;6.542;2022-11-11T15:10:00;17.10;65.70
1405;DHT22;697;51.114;6.542;2022-11-11T15:12:41;17.00;66.00
1405;DHT22;697;51.114;6.542;2022-11-11T15:15:13;17.00;66.70
1405;DHT22;697;51.114;6.542;2022-11-11T15:17:53;16.90;67.00
1405;DHT22;697;51.114;6.542;2022-11-11T15:20:40;16.80;67.50
1405;DHT22;697;51.114;6.542;2022-11-11T15:23:16;16.70;67.80
1405;DHT22;697;51.114;6.542;2022-11-11T15:25:52;16.60;68.20
1405;DHT22;697;51.114;6.542;2022-11-11T15:31:26;16.50;69.30
1405;DHT22;697;51.114;6.542;2022-11-11T15:34:02;16.40;69.90
1405;DHT22;697;51.114;6.542;2022-11-11T15:36:44;16.30;70.20
1405;DHT22;697;51.114;6.542;2022-11-11T15:39:18;16.20;71.50
1405;DHT22;697;51.114;6.542;2022-11-11T15:41:49;16.20;71.20
1405;DHT22;697;51.114;6.542;2022-11-11T15:44:19;16.10;71.50
1405;DHT22;697;51.114;6.542;2022-11-11T15:46:47;16.00;71.80
1405;DHT22;697;51.114;6.542;2022-11-11T15:49:17;15.80;72.10
1405;DHT22;697;51.114;6.542;2022-11-11T15:52:03;15.80;72.80
1405;DHT22;697;51.114;6.542;2022-11-11T15:54:32;15.60;73.30
1405;DHT22;697;51.114;6.542;2022-11-11T15:56:59;15.50;73.70
1405;DHT22;697;51.114;6.542;2022-11-11T15:59:30;15.50;74.30
1405;DHT22;697;51.114;6.542;2022-11-11T16:02:06;15.40;74.70
1405;DHT22;697;51.114;6.542;2022-11-11T16:04:34;15.20;75.00
1405;DHT22;697;51.114;6.542;2022-11-11T16:07:00;15.20;75.50
1405;DHT22;697;51.114;6.542;2022-11-11T16:09:29;15.10;76.00
1405;DHT22;697;51.114;6.542;2022-11-11T16:11:57;15.00;76.20
1405;DHT22;697;51.114;6.542;2022-11-11T16:14:29;15.00;76.60
1405;DHT22;697;51.114;6.542;2022-11-11T16:16:59;14.90;76.70
1405;DHT22;697;51.114;6.542;2022-11-11T16:19:32;14.80;76.80
1405;DHT22;697;51.114;6.542;2022-11-11T16:22:02;14.80;77.10
1405;DHT22;697;51.114;6.542;2022-11-11T16:24:34;14.70;77.20
1405;DHT22;697;51.114;6.542;2022-11-11T16:27:03;14.60;77.40
1405;DHT22;697;51.114;6.542;2022-11-11T16:29:33;14.60;77.70
1405;DHT22;697;51.114;6.542;2022-11-11T16:32:01;14.50;77.90
1405;DHT22;697;51.114;6.542;2022-11-11T16:34:42;14.50;78.10
1405;DHT22;697;51.114;6.542;2022-11-11T16:37:11;14.40;78.20
1405;DHT22;697;51.114;6.542;2022-11-11T16:39:42;14.40;78.50
1405;DHT22;697;51.114;6.542;2022-11-11T16:42:17;14.30;78.80
1405;DHT22;697;51.114;6.542;2022-11-11T16:44:48;14.30;79.10
1405;DHT22;697;51.114;6.542;2022-11-11T16:47:40;14.20;79.30
1405;DHT22;697;51.114;6.542;2022-11-11T16:50:10;14.20;79.60
1405;DHT22;697;51.114;6.542;2022-11-11T16:52:41;14.10;79.70
1405;DHT22;697;51.114;6.542;2022-11-11T16:55:18;14.10;79.70
1405;DHT22;697;51.114;6.542;2022-11-11T16:57:46;14.00;79.70
1405;DHT22;697;51.114;6.542;2022-11-11T17:00:15;13.80;79.30
1405;DHT22;697;51.114;6.542;2022-11-11T17:02:42;13.80;78.90
1405;DHT22;697;51.114;6.542;2022-11-11T17:05:09;13.70;78.70